createdAt,value
2017-07-17T00:01:17.383Z,10.30
2017-07-17T00:03:45.685Z,11.40
2017-07-17T00:06:14.009Z,11.33
2017-07-17T00:08:42.318Z,9.57
2017-07-17T00:11:10.615Z,10.30
2017-07-17T00:13:38.977Z,10.70
2017-07-17T00:16:07.272Z,10.20
2017-07-17T00:18:35.577Z,11.20
2017-07-17T00:21:03.910Z,10.90
2017-07-17T00:23:32.198Z,11.20
2017-07-17T00:26:00.538Z,12.27
2017-07-17T00:28:41.533Z,11.90
2017-07-17T00:31:09.858Z,12.00
2017-07-17T00:33:38.906Z,12.23
2017-07-17T00:36:07.245Z,11.90
2017-07-17T00:38:35.580Z,11.00
2017-07-17T00:41:10.565Z,12.47
2017-07-17T00:43:38.887Z,12.60
2017-07-17T00:46:07.200Z,14.00
2017-07-17T00:48:35.532Z,13.87
2017-07-17T00:51:03.868Z,14.00
2017-07-17T00:53:32.161Z,13.57
2017-07-17T00:56:00.492Z,13.70
2017-07-17T00:58:28.774Z,12.90
2017-07-17T01:00:57.114Z,13.27
2017-07-17T01:03:35.095Z,14.83
2017-07-17T01:06:03.440Z,14.60
2017-07-17T01:08:31.749Z,15.87
2017-07-17T01:11:00.052Z,14.70
2017-07-17T01:13:28.423Z,15.03
2017-07-17T01:15:56.719Z,15.77
2017-07-17T01:18:25.991Z,16.00
2017-07-17T01:20:54.325Z,16.57
2017-07-17T01:23:22.610Z,15.70
2017-07-17T01:25:50.974Z,18.20
2017-07-17T01:28:19.276Z,17.83
2017-07-17T01:30:47.569Z,16.43
2017-07-17T01:33:15.924Z,17.17
2017-07-17T01:35:44.986Z,16.17
2017-07-17T01:38:13.290Z,19.33
2017-07-17T01:40:41.611Z,17.20
2017-07-17T01:43:10.706Z,18.50
2017-07-17T01:45:39.034Z,19.27
2017-07-17T01:48:07.382Z,16.73
2017-07-17T01:50:35.702Z,20.20
2017-07-17T01:53:04.040Z,19.43
2017-07-17T01:55:32.342Z,18.20
2017-07-17T01:58:00.687Z,19.00
2017-07-17T02:00:28.984Z,17.63
2017-07-17T02:02:57.279Z,21.37
2017-07-17T02:05:25.599Z,20.90
2017-07-17T02:07:53.913Z,17.83
2017-07-17T02:10:23.026Z,18.60
2017-07-17T02:12:52.085Z,18.80
2017-07-17T02:15:20.388Z,20.00
2017-07-17T02:17:48.702Z,19.27
2017-07-17T02:20:17.773Z,18.37
2017-07-17T02:22:46.090Z,18.60
2017-07-17T02:25:14.415Z,19.90
2017-07-17T02:27:42.721Z,19.20
2017-07-17T02:30:11.055Z,17.20
2017-07-17T02:32:39.374Z,16.87
2017-07-17T02:35:08.444Z,16.97
2017-07-17T02:37:36.770Z,17.40
2017-07-17T02:40:05.833Z,16.73
2017-07-17T02:42:34.172Z,15.13
2017-07-17T02:45:02.476Z,15.23
2017-07-17T02:47:30.787Z,15.73
2017-07-17T02:50:19.764Z,16.77
2017-07-17T02:52:48.060Z,15.43
2017-07-17T02:55:16.375Z,16.50
2017-07-17T02:57:44.671Z,16.53
2017-07-17T03:00:13.012Z,14.53
2017-07-17T03:02:41.313Z,15.33
2017-07-17T03:05:09.597Z,16.03
2017-07-17T03:07:37.940Z,14.07
2017-07-17T03:10:06.238Z,14.13
2017-07-17T03:12:35.667Z,15.20
2017-07-17T03:15:04.009Z,13.60
2017-07-17T03:17:32.296Z,12.80
2017-07-17T03:20:14.311Z,13.07
2017-07-17T03:22:42.633Z,14.20
2017-07-17T03:25:11.686Z,15.30
2017-07-17T03:27:40.014Z,15.23
2017-07-17T03:33:05.824Z,15.77
2017-07-17T03:35:34.122Z,14.10
2017-07-17T03:38:02.420Z,13.63
2017-07-17T03:40:30.733Z,13.30
2017-07-17T03:42:59.034Z,13.77
2017-07-17T03:45:27.372Z,13.37
2017-07-17T03:47:55.664Z,13.63
2017-07-17T03:50:23.958Z,10.70
2017-07-17T03:52:52.280Z,12.20
2017-07-17T03:55:20.572Z,12.13
2017-07-17T03:57:48.998Z,11.90
2017-07-17T04:00:17.292Z,12.30
2017-07-17T04:02:46.357Z,12.53
2017-07-17T04:05:14.676Z,11.10
2017-07-17T04:07:43.769Z,12.67
2017-07-17T04:10:12.064Z,11.77
2017-07-17T04:12:40.390Z,11.00
2017-07-17T04:15:08.696Z,12.03
2017-07-17T04:17:36.987Z,11.80
2017-07-17T04:20:05.299Z,13.10
2017-07-17T04:22:33.645Z,11.73
2017-07-17T04:25:01.980Z,13.07
2017-07-17T04:27:30.262Z,12.90
2017-07-17T04:30:00.592Z,11.80
2017-07-17T04:32:28.887Z,11.00
2017-07-17T04:34:57.178Z,9.83
2017-07-17T04:37:25.496Z,10.70
2017-07-17T04:39:53.806Z,11.43
2017-07-17T04:42:22.901Z,9.90
2017-07-17T04:44:51.214Z,9.80
2017-07-17T04:47:19.546Z,8.97
2017-07-17T04:49:53.762Z,8.87
2017-07-17T04:52:22.055Z,8.70
2017-07-17T04:54:50.335Z,8.70
2017-07-17T04:57:18.656Z,8.23
2017-07-17T04:59:46.989Z,8.17
2017-07-17T05:02:15.296Z,6.93
2017-07-17T05:04:43.601Z,8.33
2017-07-17T05:07:11.931Z,7.30
2017-07-17T05:09:40.219Z,6.07
2017-07-17T05:12:08.558Z,7.17
2017-07-17T05:14:36.884Z,6.97
2017-07-17T05:17:05.190Z,6.10
2017-07-17T05:19:34.455Z,5.73
2017-07-17T05:22:02.735Z,6.47
2017-07-17T05:24:31.012Z,6.40
2017-07-17T05:26:59.374Z,6.03
2017-07-17T05:29:27.666Z,4.70
2017-07-17T05:31:55.960Z,6.00
2017-07-17T05:34:24.285Z,6.40
2017-07-17T05:36:52.563Z,5.70
2017-07-17T05:39:20.878Z,6.37
2017-07-17T05:41:49.163Z,6.73
2017-07-17T05:44:17.451Z,5.90
2017-07-17T05:46:45.764Z,5.30
2017-07-17T05:49:14.052Z,5.23
2017-07-17T05:51:42.370Z,5.93
2017-07-17T05:54:10.646Z,5.80
2017-07-17T05:56:38.964Z,4.90
2017-07-17T05:59:08.004Z,5.10
2017-07-17T06:01:36.318Z,4.50
2017-07-17T06:04:04.605Z,5.63
2017-07-17T06:06:32.933Z,4.17
2017-07-17T06:09:02.025Z,4.17
2017-07-17T06:11:30.318Z,4.30
2017-07-17T06:13:58.647Z,4.07
2017-07-17T06:16:26.971Z,4.63
2017-07-17T06:18:55.286Z,4.53
2017-07-17T06:21:23.606Z,3.93
2017-07-17T06:23:51.910Z,4.00
2017-07-17T06:26:20.225Z,3.07
2017-07-17T06:28:48.640Z,3.83
2017-07-17T06:31:16.931Z,3.60
2017-07-17T06:33:45.220Z,3.40
2017-07-17T06:36:13.545Z,3.63
2017-07-17T06:38:42.630Z,3.53
2017-07-17T06:41:10.902Z,3.70
2017-07-17T06:43:39.210Z,2.93
2017-07-17T06:46:07.529Z,2.37
2017-07-17T06:48:35.818Z,2.60
2017-07-17T06:51:04.132Z,3.17
2017-07-17T06:53:32.440Z,2.50
2017-07-17T06:56:00.732Z,2.63
2017-07-17T06:58:29.042Z,2.90
2017-07-17T07:00:57.374Z,4.03
2017-07-17T07:03:25.681Z,2.50
2017-07-17T07:05:53.973Z,3.40
2017-07-17T07:08:22.273Z,2.43
2017-07-17T07:10:50.592Z,2.20
2017-07-17T07:13:18.921Z,1.80
2017-07-17T07:15:47.227Z,2.20
2017-07-17T07:18:15.513Z,2.13
2017-07-17T07:20:43.824Z,2.40
2017-07-17T07:23:12.129Z,2.60
2017-07-17T07:25:40.447Z,3.00
2017-07-17T07:28:08.722Z,3.00
2017-07-17T07:30:37.807Z,2.70
2017-07-17T07:33:06.138Z,2.10
2017-07-17T07:35:35.228Z,3.53
2017-07-17T07:38:03.548Z,2.70
2017-07-17T07:40:40.583Z,2.60
2017-07-17T07:43:08.904Z,2.57
2017-07-17T07:45:37.193Z,2.33
2017-07-17T07:48:05.505Z,2.70
2017-07-17T07:50:33.793Z,2.30
2017-07-17T07:53:02.108Z,2.07
2017-07-17T07:55:30.425Z,1.73
2017-07-17T07:57:58.712Z,1.77
2017-07-17T08:00:27.020Z,1.47
2017-07-17T08:02:55.305Z,1.27
2017-07-17T08:05:23.623Z,1.60
2017-07-17T08:07:52.703Z,1.23
2017-07-17T08:10:21.019Z,1.67
2017-07-17T08:12:49.359Z,1.20
2017-07-17T08:15:17.645Z,1.40
2017-07-17T08:17:45.928Z,1.70
2017-07-17T08:20:14.256Z,1.53
2017-07-17T08:22:42.544Z,1.67
2017-07-17T08:25:10.834Z,1.73
2017-07-17T08:27:39.161Z,1.77
2017-07-17T08:30:07.452Z,1.60
2017-07-17T08:32:35.739Z,1.40
2017-07-17T08:35:04.064Z,2.10
2017-07-17T08:37:32.352Z,1.33
2017-07-17T08:40:00.674Z,1.57
2017-07-17T08:42:28.955Z,1.50
2017-07-17T08:44:57.252Z,1.67
2017-07-17T08:47:25.587Z,2.00
2017-07-17T08:49:53.867Z,1.60
2017-07-17T08:52:22.146Z,1.77
2017-07-17T08:54:50.484Z,1.43
2017-07-17T08:57:18.764Z,1.63
2017-07-17T08:59:47.060Z,1.83
2017-07-17T09:02:15.375Z,1.53
2017-07-17T09:04:43.701Z,1.53
2017-07-17T09:07:11.992Z,1.10
2017-07-17T09:09:40.301Z,1.10
2017-07-17T09:12:08.640Z,1.20
2017-07-17T09:14:36.918Z,1.17
2017-07-17T09:17:05.203Z,1.60
2017-07-17T09:19:33.511Z,1.00
2017-07-17T09:22:01.797Z,1.20
2017-07-17T09:24:30.079Z,1.13
2017-07-17T09:26:58.389Z,1.00
2017-07-17T09:29:27.438Z,1.57
2017-07-17T09:32:01.572Z,5.67
2017-07-17T09:34:29.837Z,1.50
2017-07-17T09:36:58.131Z,1.30
2017-07-17T09:39:26.461Z,1.80
2017-07-17T09:41:54.765Z,1.30
2017-07-17T09:44:23.113Z,1.40
2017-07-17T09:46:51.386Z,1.10
2017-07-17T09:49:19.682Z,1.10
2017-07-17T09:51:47.997Z,0.90
2017-07-17T09:54:16.278Z,0.80
2017-07-17T09:56:44.608Z,1.47
2017-07-17T09:59:12.887Z,1.00
2017-07-17T10:01:41.219Z,0.90
2017-07-17T10:04:09.506Z,0.90
2017-07-17T10:06:37.827Z,1.00
2017-07-17T10:09:06.149Z,0.97
2017-07-17T10:11:34.422Z,1.07
2017-07-17T10:14:02.739Z,1.00
2017-07-17T10:16:31.031Z,0.90
2017-07-17T10:19:00.070Z,1.10
2017-07-17T10:21:28.398Z,1.33
2017-07-17T10:23:56.687Z,1.20
2017-07-17T10:26:24.962Z,1.10
2017-07-17T10:28:53.275Z,1.47
2017-07-17T10:31:21.571Z,1.20
2017-07-17T10:33:49.906Z,0.90
2017-07-17T10:36:18.200Z,0.90
2017-07-17T10:38:46.476Z,0.93
2017-07-17T10:41:14.808Z,0.90
2017-07-17T10:43:43.097Z,0.80
2017-07-17T10:46:11.375Z,1.20
2017-07-17T10:48:59.459Z,0.90
2017-07-17T10:51:27.753Z,1.47
2017-07-17T10:53:56.163Z,1.10
2017-07-17T10:56:25.206Z,1.00
2017-07-17T10:58:53.663Z,0.90
2017-07-17T11:01:22.234Z,1.07
2017-07-17T11:03:50.563Z,1.00
2017-07-17T11:06:18.858Z,1.00
2017-07-17T11:08:47.136Z,1.20
2017-07-17T11:11:15.457Z,0.90
2017-07-17T11:13:43.793Z,2.33
2017-07-17T11:16:12.072Z,1.00
2017-07-17T11:18:40.356Z,1.10
2017-07-17T11:21:08.725Z,1.20
2017-07-17T11:23:36.973Z,0.93
2017-07-17T11:26:05.310Z,0.90
2017-07-17T11:28:33.601Z,1.10
2017-07-17T11:31:01.899Z,1.03
2017-07-17T11:33:30.265Z,1.00
2017-07-17T11:35:58.554Z,0.93
2017-07-17T11:38:26.990Z,1.00
2017-07-17T11:40:55.288Z,0.90
2017-07-17T11:43:23.589Z,0.90
2017-07-17T11:45:51.951Z,0.93
2017-07-17T11:58:29.309Z,1.00
2017-07-17T12:00:58.396Z,1.40
2017-07-17T12:03:26.732Z,0.90
2017-07-17T12:05:55.048Z,0.90
2017-07-17T12:08:23.360Z,0.90
2017-07-17T12:10:52.635Z,0.90
2017-07-17T12:13:21.018Z,1.37
2017-07-17T12:15:49.327Z,0.67
2017-07-17T12:18:17.686Z,0.90
2017-07-17T12:20:45.996Z,0.90
2017-07-17T12:23:14.316Z,0.80
2017-07-17T12:25:42.685Z,0.77
2017-07-17T12:28:11.016Z,0.90
2017-07-17T12:30:39.324Z,0.70
2017-07-17T12:33:07.673Z,1.10
2017-07-17T12:35:36.024Z,0.90
2017-07-17T12:38:04.343Z,0.93
2017-07-17T12:40:33.568Z,0.90
2017-07-17T12:43:02.818Z,0.70
2017-07-17T12:45:31.114Z,0.70
2017-07-17T12:47:59.633Z,0.70
2017-07-17T12:50:27.957Z,0.80
2017-07-17T12:52:56.468Z,0.80
2017-07-17T12:55:24.860Z,0.80
2017-07-17T12:57:53.172Z,0.80
2017-07-17T13:00:21.502Z,0.80
2017-07-17T13:02:49.781Z,0.70
2017-07-17T13:05:18.085Z,0.70
2017-07-17T13:07:46.436Z,0.80
2017-07-17T13:10:14.746Z,0.70
2017-07-17T13:12:43.070Z,0.77
2017-07-17T13:15:11.394Z,0.80
2017-07-17T13:17:40.476Z,0.80
2017-07-17T13:20:09.559Z,0.70
2017-07-17T13:22:37.835Z,0.60
2017-07-17T13:25:06.153Z,1.63
2017-07-17T13:27:34.446Z,0.80
2017-07-17T13:30:02.758Z,0.80
2017-07-17T13:32:31.094Z,1.00
2017-07-17T13:34:59.385Z,0.60
2017-07-17T13:37:27.684Z,1.07
2017-07-17T13:39:56.021Z,0.67
2017-07-17T13:42:24.296Z,0.97
2017-07-17T13:44:52.613Z,0.80
2017-07-17T13:47:20.890Z,0.70
2017-07-17T13:49:49.233Z,0.97
2017-07-17T13:52:17.534Z,0.73
2017-07-17T13:54:45.815Z,0.70
2017-07-17T13:57:14.127Z,0.67
2017-07-17T13:59:42.438Z,0.90
2017-07-17T14:02:10.799Z,0.60
2017-07-17T14:04:39.094Z,0.70
2017-07-17T14:07:07.408Z,1.30
2017-07-17T14:09:36.451Z,0.60
2017-07-17T14:12:04.769Z,0.60
2017-07-17T14:14:33.092Z,0.67
2017-07-17T14:17:02.188Z,0.70
2017-07-17T14:19:31.235Z,0.60
2017-07-17T14:21:59.701Z,0.60
2017-07-17T14:24:27.996Z,0.63
2017-07-17T14:26:56.287Z,1.20
2017-07-17T14:29:24.616Z,0.70
2017-07-17T14:31:52.904Z,0.80
2017-07-17T14:34:21.253Z,0.70
2017-07-17T14:36:49.578Z,0.60
2017-07-17T14:39:17.916Z,0.70
2017-07-17T14:41:47.259Z,0.63
2017-07-17T14:44:15.801Z,0.70
2017-07-17T14:46:44.632Z,0.73
2017-07-17T14:49:13.688Z,0.60
2017-07-17T14:51:41.970Z,1.53
2017-07-17T14:54:10.352Z,0.93
2017-07-17T14:56:39.514Z,0.90
2017-07-17T14:59:07.846Z,0.70
2017-07-17T15:01:36.140Z,0.80
2017-07-17T15:04:05.326Z,3.63
2017-07-17T15:06:34.150Z,0.83
2017-07-17T15:09:02.818Z,0.70
2017-07-17T15:11:32.078Z,0.70
2017-07-17T15:14:00.553Z,0.50
2017-07-17T15:16:28.955Z,0.70
2017-07-17T15:18:57.302Z,0.80
2017-07-17T15:21:25.603Z,0.97
2017-07-17T15:23:54.659Z,0.73
2017-07-17T15:26:22.972Z,0.77
2017-07-17T15:28:51.333Z,0.60
2017-07-17T15:31:19.628Z,0.60
2017-07-17T15:33:47.949Z,0.60
2017-07-17T15:36:16.279Z,0.80
2017-07-17T15:38:44.680Z,0.67
2017-07-17T15:41:13.737Z,0.60
2017-07-17T15:43:42.043Z,0.70
2017-07-17T15:46:10.345Z,0.60
2017-07-17T15:48:38.652Z,0.90
2017-07-17T15:51:07.757Z,1.27
2017-07-17T15:53:36.127Z,0.70
2017-07-17T15:56:04.642Z,0.70
2017-07-17T15:58:32.911Z,1.07
2017-07-17T16:01:01.201Z,0.70
2017-07-17T16:03:29.528Z,0.50
2017-07-17T16:05:58.576Z,0.70
2017-07-17T16:08:26.883Z,0.70
2017-07-17T16:10:55.180Z,0.50
2017-07-17T16:13:23.539Z,0.70
2017-07-17T16:15:51.861Z,0.60
2017-07-17T16:18:20.256Z,0.70
2017-07-17T16:20:48.584Z,0.60
2017-07-17T16:23:17.151Z,0.67
2017-07-17T16:25:46.228Z,0.70
2017-07-17T16:28:14.581Z,0.70
2017-07-17T16:30:42.879Z,0.60
2017-07-17T16:33:11.864Z,0.70
2017-07-17T16:35:40.459Z,0.70
2017-07-17T16:38:09.612Z,0.60
2017-07-17T16:40:37.914Z,0.90
2017-07-17T16:43:06.233Z,0.70
2017-07-17T16:45:34.578Z,0.73
2017-07-17T16:48:02.893Z,0.77
2017-07-17T16:50:31.191Z,0.70
2017-07-17T16:52:59.668Z,0.77
2017-07-17T16:55:27.960Z,0.80
2017-07-17T16:57:56.253Z,0.80
2017-07-17T17:00:24.652Z,0.60
2017-07-17T17:02:52.935Z,0.80
2017-07-17T17:05:22.372Z,0.70
2017-07-17T17:07:51.755Z,0.80
2017-07-17T17:10:20.265Z,0.77
2017-07-17T17:12:48.685Z,1.00
2017-07-17T17:15:17.737Z,0.80
2017-07-17T17:17:46.246Z,0.87
2017-07-17T17:20:14.536Z,0.67
2017-07-17T17:22:42.911Z,0.83
2017-07-17T17:25:11.676Z,0.87
2017-07-17T17:27:40.390Z,0.90
2017-07-17T17:30:08.982Z,0.90
2017-07-17T17:32:37.617Z,1.33
2017-07-17T17:35:06.126Z,1.00
2017-07-17T17:37:34.661Z,1.00
2017-07-17T17:40:03.042Z,0.80
2017-07-17T17:42:31.491Z,0.93
2017-07-17T17:44:59.772Z,0.77
2017-07-17T17:47:28.099Z,0.80
2017-07-17T17:49:57.165Z,0.90
2017-07-17T17:52:25.451Z,0.80
2017-07-17T17:54:53.863Z,0.87
2017-07-17T17:57:22.254Z,0.87
2017-07-17T17:59:50.695Z,0.90
2017-07-17T18:02:19.054Z,0.80
2017-07-17T18:04:47.441Z,0.87
2017-07-17T18:07:15.752Z,0.90
2017-07-17T18:09:44.808Z,0.80
2017-07-17T18:12:13.118Z,0.77
2017-07-17T18:14:41.406Z,0.73
2017-07-17T18:17:09.728Z,1.40
2017-07-17T18:19:38.907Z,1.03
2017-07-17T18:22:07.192Z,0.90
2017-07-17T18:24:35.592Z,1.10
2017-07-17T18:27:03.876Z,0.80
2017-07-17T18:29:32.160Z,1.20
2017-07-17T18:32:00.473Z,0.80
2017-07-17T18:34:29.643Z,0.90
2017-07-17T18:36:57.954Z,0.90
2017-07-17T18:39:26.292Z,1.30
2017-07-17T18:41:54.625Z,1.27
2017-07-17T18:44:22.938Z,1.43
2017-07-17T18:46:52.044Z,0.90
2017-07-17T18:49:20.323Z,1.20
2017-07-17T18:51:48.619Z,1.40
2017-07-17T18:54:16.932Z,1.13
2017-07-17T18:56:45.264Z,1.30
2017-07-17T18:59:13.595Z,1.10
2017-07-17T19:01:42.658Z,1.00
2017-07-17T19:04:10.951Z,1.03
2017-07-17T19:06:39.377Z,1.20
2017-07-17T19:09:07.656Z,1.03
2017-07-17T19:11:36.054Z,1.00
2017-07-17T19:14:04.353Z,1.23
2017-07-17T19:16:33.441Z,1.10
2017-07-17T19:19:01.972Z,1.37
2017-07-17T19:21:31.041Z,1.00
2017-07-17T19:24:00.496Z,0.90
2017-07-17T19:26:28.853Z,1.67
2017-07-17T19:28:57.140Z,1.27
2017-07-17T19:31:25.444Z,0.93
2017-07-17T19:33:53.829Z,2.63
2017-07-17T19:36:22.124Z,1.60
2017-07-17T19:38:51.371Z,1.93
2017-07-17T19:41:19.711Z,1.70
2017-07-17T19:43:48.159Z,1.80
2017-07-17T19:46:16.471Z,2.10
2017-07-17T19:48:44.846Z,1.57
2017-07-17T19:51:13.155Z,2.20
2017-07-17T19:53:41.439Z,1.43
2017-07-17T19:56:09.766Z,2.07
2017-07-17T19:58:38.112Z,1.90
2017-07-17T20:01:06.521Z,1.70
2017-07-17T20:03:34.840Z,1.33
2017-07-17T20:06:03.120Z,2.33
2017-07-17T20:08:31.460Z,1.97
2017-07-17T20:10:59.743Z,1.43
2017-07-17T20:13:28.956Z,1.77
2017-07-17T20:15:57.418Z,2.23
2017-07-17T20:18:27.752Z,1.90
2017-07-17T20:20:56.859Z,2.60
2017-07-17T20:23:25.952Z,1.57
2017-07-17T20:25:54.345Z,1.93
2017-07-17T20:28:22.624Z,2.03
2017-07-17T20:30:50.935Z,1.93
2017-07-17T20:33:19.270Z,1.90
2017-07-17T20:35:47.551Z,2.27
2017-07-17T20:38:15.841Z,2.23
2017-07-17T20:40:44.156Z,2.10
2017-07-17T20:43:12.444Z,1.80
2017-07-17T20:45:40.761Z,2.60
2017-07-17T20:48:09.145Z,2.77
2017-07-17T20:50:37.443Z,2.77
2017-07-17T20:53:05.733Z,1.97
2017-07-17T20:55:34.057Z,2.33
2017-07-17T20:58:02.331Z,2.53
2017-07-17T21:00:31.424Z,2.20
2017-07-17T21:02:59.725Z,3.37
2017-07-17T21:05:29.410Z,3.20
2017-07-17T21:07:57.689Z,2.40
2017-07-17T21:10:26.005Z,2.40
2017-07-17T21:12:54.482Z,2.53
2017-07-17T21:15:22.777Z,2.00
2017-07-17T21:17:51.051Z,2.40
2017-07-17T21:20:19.373Z,2.10
2017-07-17T21:22:47.687Z,2.77
2017-07-17T21:25:15.998Z,2.10
2017-07-17T21:27:44.276Z,1.90
2017-07-17T21:30:12.629Z,2.93
2017-07-17T21:32:40.907Z,2.30
2017-07-17T21:35:09.189Z,2.50
2017-07-17T21:37:37.739Z,2.23
2017-07-17T21:40:06.026Z,3.17
2017-07-17T21:42:34.373Z,2.30
2017-07-17T21:45:02.719Z,3.73
2017-07-17T21:47:31.001Z,3.03
2017-07-17T21:49:59.291Z,2.20
2017-07-17T21:52:27.610Z,2.90
2017-07-17T21:54:56.103Z,2.63
2017-07-17T21:57:24.378Z,3.17
2017-07-17T21:59:52.663Z,3.60
2017-07-17T22:02:20.995Z,3.47
2017-07-17T22:04:49.266Z,2.80
2017-07-17T22:07:17.575Z,2.60
2017-07-17T22:09:45.961Z,3.07
2017-07-17T22:12:14.298Z,3.00
2017-07-17T22:14:42.586Z,4.73
2017-07-17T22:17:10.927Z,3.13
2017-07-17T22:19:39.261Z,3.47
2017-07-17T22:22:07.549Z,3.60
2017-07-17T22:24:35.905Z,3.33
2017-07-17T22:27:04.985Z,2.90
2017-07-17T22:29:33.264Z,3.20
2017-07-17T22:32:01.584Z,3.47
2017-07-17T22:34:29.976Z,2.80
2017-07-17T22:36:58.268Z,3.23
2017-07-17T22:39:26.585Z,3.37
2017-07-17T22:41:55.680Z,3.10
2017-07-17T22:44:24.728Z,2.97
2017-07-17T22:46:53.012Z,3.80
2017-07-17T22:49:21.358Z,4.13
2017-07-17T22:51:49.646Z,3.77
2017-07-17T22:54:17.964Z,2.97
2017-07-17T22:56:46.324Z,3.97
2017-07-17T22:59:14.612Z,3.63
2017-07-17T23:01:43.001Z,3.50
2017-07-17T23:04:11.311Z,3.03
2017-07-17T23:06:40.384Z,3.70
2017-07-17T23:09:08.664Z,3.43
2017-07-17T23:11:36.989Z,2.77
2017-07-17T23:14:05.291Z,3.37
2017-07-17T23:16:34.482Z,3.63
2017-07-17T23:19:02.859Z,3.30
2017-07-17T23:21:31.136Z,3.40
2017-07-17T23:23:59.552Z,3.00
2017-07-17T23:26:27.937Z,3.70
2017-07-17T23:28:56.238Z,3.23
2017-07-17T23:31:25.322Z,3.77
2017-07-17T23:33:53.646Z,3.80
2017-07-17T23:36:22.137Z,2.90
2017-07-17T23:38:51.203Z,3.77
2017-07-17T23:41:19.520Z,4.30
2017-07-17T23:43:47.799Z,3.83
2017-07-17T23:46:16.085Z,3.57
2017-07-17T23:48:44.401Z,3.30
2017-07-17T23:51:13.447Z,3.23
2017-07-17T23:53:41.776Z,4.33
2017-07-17T23:56:10.066Z,3.80
2017-07-17T23:58:38.356Z,3.47
